Time;durP1;ratioP1;P1;durP2;ratioP2;P2;SDS_P1;SDS_P2;PMS_P1;PMS_P2;Temp;Humidity;BMP_temperature;BMP_pressure;BME280_temperature;BME280_humidity;BME280_pressure;Samples;Min_cycle;Max_cycle;Signal;HPM_P1;HPM_P2
2024/01/24 00:01:00;;;;;;;243.95;80.88;;;;;;;7.38;nan;99209.66;5082929;28;20470;-70
2024/01/24 00:03:50;;;;;;;244.23;83.68;;;;;;;7.40;nan;99210.31;5082636;28;20364;-70
2024/01/24 00:06:40;;;;;;;253.52;86.05;;;;;;;7.40;nan;99224.31;5084812;28;20036;-71
2024/01/24 00:09:31;;;;;;;274.33;88.00;;;;;;;7.28;nan;99219.50;5085031;28;20055;-71
2024/01/24 00:12:20;;;;;;;254.38;85.50;;;;;;;7.36;nan;99227.44;5103241;27;20044;-71
2024/01/24 00:15:10;;;;;;;225.32;81.55;;;;;;;7.23;nan;99233.97;5081573;28;20051;-71
2024/01/24 00:18:00;;;;;;;239.98;81.72;;;;;;;7.14;nan;99231.47;5078850;28;20639;-70
2024/01/24 00:20:51;;;;;;;247.60;81.15;;;;;;;7.23;nan;99233.97;5083324;28;20055;-70
2024/01/24 00:23:41;;;;;;;245.85;81.43;;;;;;;7.23;nan;99231.34;5079203;28;20547;-71
2024/01/24 00:26:30;;;;;;;239.15;83.75;;;;;;;7.17;nan;99239.88;5082459;28;20071;-71
2024/01/24 00:29:20;;;;;;;217.70;79.25;;;;;;;7.21;nan;99238.56;5082527;28;20048;-69
2024/01/24 00:32:09;;;;;;;236.75;80.53;;;;;;;7.15;nan;99233.94;5083123;28;20047;-70
2024/01/24 00:34:59;;;;;;;248.30;87.18;;;;;;;7.01;nan;99237.16;5083361;28;20352;-69
2024/01/24 00:37:48;;;;;;;236.02;80.28;;;;;;;6.99;nan;99235.69;5080906;28;20577;-70
2024/01/24 00:40:37;;;;;;;253.35;85.22;;;;;;;6.99;nan;99233.03;5080725;28;20052;-70
2024/01/24 00:43:27;;;;;;;235.48;81.47;;;;;;;7.02;nan;99241.44;5081976;28;20856;-69
2024/01/24 00:46:17;;;;;;;222.50;78.78;;;;;;;7.08;nan;99248.72;5080384;28;20066;-70
2024/01/24 00:49:10;;;;;;;242.23;81.05;;;;;;;7.11;nan;99260.75;5080728;28;20176;-70
2024/01/24 00:52:00;;;;;;;224.18;77.65;;;;;;;7.05;nan;99262.19;5080971;28;20044;-69
2024/01/24 00:54:50;;;;;;;219.95;78.43;;;;;;;7.17;nan;99265.38;5082025;28;20052;-70
2024/01/24 00:57:40;;;;;;;213.95;72.53;;;;;;;7.16;nan;99267.22;5086847;28;20051;-69
2024/01/24 01:00:30;;;;;;;217.75;73.03;;;;;;;7.08;nan;99272.41;5089816;28;20039;-70
2024/01/24 01:03:20;;;;;;;208.63;70.60;;;;;;;7.05;nan;99277.16;5086572;28;20126;-70
2024/01/24 01:06:10;;;;;;;195.15;69.57;;;;;;;6.89;nan;99284.97;5084023;28;20477;-71
2024/01/24 01:09:00;;;;;;;199.80;69.45;;;;;;;6.85;nan;99275.75;5080065;28;20643;-70
2024/01/24 01:11:50;;;;;;;205.98;71.28;;;;;;;6.92;nan;99276.75;5082353;28;20059;-71
2024/01/24 01:14:40;;;;;;;213.00;70.20;;;;;;;6.91;nan;99291.72;5082013;28;20051;-71
2024/01/24 01:17:29;;;;;;;201.82;69.30;;;;;;;6.98;nan;99297.22;5074404;28;20071;-71
2024/01/24 01:20:19;;;;;;;204.98;67.60;;;;;;;6.95;nan;99306.22;5076123;28;20097;-70
2024/01/24 01:23:09;;;;;;;199.40;65.93;;;;;;;6.85;nan;99300.25;5068766;28;21292;-71
2024/01/24 01:25:58;;;;;;;179.23;60.47;;;;;;;6.82;nan;99310.25;5082869;28;20720;-71
2024/01/24 01:28:48;;;;;;;188.00;59.78;;;;;;;6.54;nan;99314.81;5077724;28;20725;-71
2024/01/24 01:31:37;;;;;;;176.85;59.05;;;;;;;6.87;nan;99321.97;5047931;28;20049;-70
2024/01/24 01:34:27;;;;;;;169.52;58.80;;;;;;;7.19;nan;99316.94;5062551;28;20161;-70
2024/01/24 01:37:16;;;;;;;173.20;59.72;;;;;;;6.96;nan;99323.69;5029198;28;20060;-70
2024/01/24 01:40:07;;;;;;;190.15;61.78;;;;;;;6.89;nan;99327.94;5050981;28;20048;-70
2024/01/24 01:42:57;;;;;;;188.68;58.47;;;;;;;6.83;nan;99332.97;5042050;28;20036;-70
2024/01/24 01:45:47;;;;;;;168.27;57.67;;;;;;;6.87;nan;99334.31;5049171;28;20049;-71
2024/01/24 01:48:38;;;;;;;164.68;56.10;;;;;;;7.01;nan;99334.59;5048099;28;20064;-71
2024/01/24 01:51:28;;;;;;;168.13;57.15;;;;;;;6.97;nan;99330.63;5061238;28;20501;-71
2024/01/24 01:54:18;;;;;;;162.02;55.13;;;;;;;6.95;nan;99332.56;5062080;28;20056;-71
2024/01/24 01:57:11;;;;;;;144.15;54.08;;;;;;;6.96;nan;99344.75;5048643;28;20053;-71
2024/01/24 02:00:01;;;;;;;151.60;51.37;;;;;;;6.99;nan;99343.63;5048096;28;20047;-71
2024/01/24 02:02:53;;;;;;;170.05;57.95;;;;;;;6.80;nan;99338.56;5061163;28;20300;-70
2024/01/24 02:05:45;;;;;;;168.20;59.42;;;;;;;6.69;nan;99345.69;5044533;28;20068;-72
2024/01/24 02:08:36;;;;;;;176.75;60.55;;;;;;;6.76;nan;99345.94;5044004;28;20400;-72
2024/01/24 02:11:26;;;;;;;163.05;64.55;;;;;;;6.99;nan;99349.69;5058966;28;20174;-72
2024/01/24 02:14:16;;;;;;;179.38;64.82;;;;;;;6.70;nan;99349.16;5062186;28;20067;-72
2024/01/24 02:17:06;;;;;;;182.60;63.67;;;;;;;6.67;nan;99345.03;5053628;28;20127;-72
2024/01/24 02:19:56;;;;;;;195.18;66.70;;;;;;;6.77;nan;99350.22;5061770;28;20044;-72
2024/01/24 02:22:46;;;;;;;209.73;71.18;;;;;;;6.82;nan;99344.47;5061346;28;20510;-71
2024/01/24 02:25:36;;;;;;;187.90;70.65;;;;;;;6.74;nan;99353.13;5039267;28;20063;-72
2024/01/24 02:28:25;;;;;;;209.93;72.63;;;;;;;6.85;nan;99346.81;5047186;28;20092;-72
2024/01/24 02:31:15;;;;;;;198.48;71.50;;;;;;;7.03;nan;99344.97;5048906;28;20080;-71
2024/01/24 02:34:05;;;;;;;228.90;78.95;;;;;;;6.57;nan;99352.19;5048549;28;20538;-71
2024/01/24 02:36:55;;;;;;;217.48;76.00;;;;;;;6.47;nan;99347.97;5065793;28;20430;-72
2024/01/24 02:39:44;;;;;;;198.95;73.90;;;;;;;6.93;nan;99360.03;5064918;28;20049;-72
2024/01/24 02:42:34;;;;;;;230.55;76.75;;;;;;;7.00;nan;99356.63;5064699;28;20141;-72
2024/01/24 02:45:24;;;;;;;203.95;74.85;;;;;;;6.94;nan;99357.25;5049424;28;20059;-72
2024/01/24 02:48:14;;;;;;;212.73;74.35;;;;;;;6.68;nan;99359.03;5067983;28;20059;-72
2024/01/24 02:51:04;;;;;;;205.93;69.18;;;;;;;6.80;nan;99363.06;5051337;28;20052;-72
2024/01/24 02:53:53;;;;;;;185.90;65.05;;;;;;;6.78;nan;99365.00;5050852;28;20539;-72
2024/01/24 02:56:43;;;;;;;158.85;57.72;;;;;;;6.64;nan;99361.13;5050735;28;20372;-72
2024/01/24 02:59:33;;;;;;;157.45;55.15;;;;;;;6.58;nan;99366.16;5062650;28;20491;-72
2024/01/24 03:02:22;;;;;;;154.02;53.35;;;;;;;6.43;nan;99365.84;5064190;28;20705;-72
2024/01/24 03:05:13;;;;;;;147.07;54.17;;;;;;;6.57;nan;99364.50;5059406;28;20536;-72
2024/01/24 03:08:03;;;;;;;140.60;52.67;;;;;;;6.67;nan;99367.91;5040765;28;20654;-72
2024/01/24 03:10:53;;;;;;;169.68;60.03;;;;;;;6.72;nan;99374.38;5048400;28;20048;-72
2024/01/24 03:13:43;;;;;;;180.27;64.25;;;;;;;6.68;nan;99377.44;5059674;28;20111;-72
2024/01/24 03:16:32;;;;;;;195.02;68.18;;;;;;;6.76;nan;99374.88;5064349;28;20090;-71
2024/01/24 03:19:23;;;;;;;184.48;67.72;;;;;;;6.60;nan;99382.63;5055156;28;20044;-71
2024/01/24 03:22:13;;;;;;;205.02;72.68;;;;;;;6.49;nan;99390.75;5050897;28;20087;-70
2024/01/24 03:25:03;;;;;;;201.27;71.07;;;;;;;6.58;nan;99406.47;5049742;28;20748;-70
2024/01/24 03:27:52;;;;;;;215.32;72.63;;;;;;;6.72;nan;99407.75;5062165;28;20048;-70
2024/01/24 03:30:46;;;;;;;198.77;72.78;;;;;;;6.79;nan;99416.69;5070579;28;20059;-70
2024/01/24 03:33:38;;;;;;;203.18;69.57;;;;;;;6.83;nan;99414.56;5075070;28;20033;-72
2024/01/24 03:36:28;;;;;;;181.27;64.27;;;;;;;6.74;nan;99422.41;5042003;28;20143;-75
2024/01/24 03:39:18;;;;;;;177.52;59.22;;;;;;;6.76;nan;99431.00;5059670;28;20056;-72
2024/01/24 03:42:08;;;;;;;176.73;62.60;;;;;;;6.80;nan;99431.50;5053473;28;20040;-72
2024/01/24 03:44:58;;;;;;;173.98;60.45;;;;;;;6.88;nan;99426.31;5057801;28;20620;-72
2024/01/24 03:47:49;;;;;;;169.30;58.45;;;;;;;6.71;nan;99430.63;5078156;28;20070;-73
2024/01/24 03:50:39;;;;;;;174.27;60.33;;;;;;;6.76;nan;99431.00;5074796;28;20040;-71
2024/01/24 03:53:29;;;;;;;171.00;62.22;;;;;;;6.76;nan;99428.38;5081802;28;20093;-71
2024/01/24 03:56:19;;;;;;;182.13;63.92;;;;;;;6.90;nan;99432.28;5078063;28;20040;-72
2024/01/24 03:59:09;;;;;;;181.70;60.95;;;;;;;6.95;nan;99427.34;5074508;28;20058;-72
2024/01/24 04:01:59;;;;;;;189.60;63.42;;;;;;;7.04;nan;99436.16;5079185;28;20553;-72
2024/01/24 04:04:48;;;;;;;178.70;61.55;;;;;;;7.03;nan;99450.31;5077886;28;20475;-71
2024/01/24 04:07:38;;;;;;;189.98;65.70;;;;;;;6.90;nan;99449.88;5071276;28;20127;-71
2024/01/24 04:10:28;;;;;;;167.80;62.83;;;;;;;6.95;nan;99461.59;5079201;28;20044;-72
2024/01/24 04:13:18;;;;;;;188.52;63.28;;;;;;;6.83;nan;99461.97;5072956;28;20461;-73
2024/01/24 04:16:08;;;;;;;176.18;63.42;;;;;;;6.93;nan;99466.19;5057422;28;20073;-73
2024/01/24 04:18:58;;;;;;;181.43;62.67;;;;;;;7.19;nan;99466.25;5078929;28;20059;-72
2024/01/24 04:21:48;;;;;;;182.70;64.15;;;;;;;7.31;nan;99459.75;5069468;28;20101;-72
2024/01/24 04:24:37;;;;;;;172.20;63.22;;;;;;;7.36;nan;99467.19;5078098;28;20810;-73
2024/01/24 04:27:27;;;;;;;167.00;60.00;;;;;;;7.22;nan;99469.41;5083143;28;20834;-72
2024/01/24 04:30:17;;;;;;;156.90;58.35;;;;;;;7.27;nan;99476.84;5079215;28;20060;-73
2024/01/24 04:33:07;;;;;;;183.63;61.63;;;;;;;7.42;nan;99466.59;5078307;28;20044;-73
2024/01/24 04:35:57;;;;;;;182.95;62.15;;;;;;;7.17;nan;99470.81;5082612;28;20106;-72
2024/01/24 04:38:47;;;;;;;187.27;63.13;;;;;;;7.31;nan;99478.19;5073150;28;20048;-73
2024/01/24 04:41:16;;;;;;;180.93;63.58;;;;;;;7.23;nan;99475.50;5079448;28;20075;-71
2024/01/24 04:43:45;;;;;;;189.90;65.45;;;;;;;7.07;nan;99473.56;5079864;28;20119;-71
2024/01/24 04:46:15;;;;;;;190.32;66.95;;;;;;;7.18;nan;99475.94;5082922;28;20135;-71
2024/01/24 04:48:45;;;;;;;187.80;68.40;;;;;;;7.26;nan;99493.63;5085001;28;20040;-71
2024/01/24 04:51:14;;;;;;;183.20;65.05;;;;;;;7.27;nan;99483.91;5075545;28;20052;-72
2024/01/24 04:53:43;;;;;;;196.32;67.55;;;;;;;7.31;nan;99483.47;5070129;28;20127;-72
2024/01/24 04:56:17;;;;;;;171.05;65.18;;;;;;;7.35;nan;99492.72;5065620;28;20049;-72
2024/01/24 04:58:46;;;;;;;186.90;66.10;;;;;;;7.47;nan;99488.06;5049203;28;20038;-72
2024/01/24 05:01:16;;;;;;;170.65;61.25;;;;;;;7.50;nan;99485.94;5090080;28;20044;-71
2024/01/24 05:03:46;;;;;;;191.88;65.95;;;;;;;7.51;nan;99489.41;5093476;28;20040;-72
2024/01/24 05:06:16;;;;;;;189.48;65.15;;;;;;;7.71;nan;99496.13;5078904;28;20055;-72
2024/01/24 05:08:45;;;;;;;196.27;68.90;;;;;;;7.59;nan;99500.00;5062231;28;20040;-72
2024/01/24 05:11:14;;;;;;;177.80;65.95;;;;;;;7.69;nan;99495.47;5060745;28;20049;-72
2024/01/24 05:13:44;;;;;;;186.45;68.95;;;;;;;7.63;nan;99496.91;5063788;28;20480;-71
2024/01/24 05:16:14;;;;;;;205.55;69.85;;;;;;;7.53;nan;99505.88;5063532;28;20048;-68
2024/01/24 05:18:43;;;;;;;193.20;73.40;;;;;;;7.68;nan;99506.97;5063184;28;20432;-70
2024/01/24 05:21:12;;;;;;;201.60;73.13;;;;;;;7.74;nan;99510.81;5061218;28;20055;-69
2024/01/24 05:23:42;;;;;;;189.27;68.50;;;;;;;7.66;nan;99501.84;5063715;28;20132;-70
2024/01/24 05:26:12;;;;;;;192.05;68.50;;;;;;;7.73;nan;99504.72;5060760;28;20048;-71
2024/01/24 05:28:42;;;;;;;205.88;73.70;;;;;;;7.82;nan;99498.50;5062962;28;20440;-70
2024/01/24 05:31:11;;;;;;;222.93;77.32;;;;;;;7.79;nan;99495.38;5068950;28;20472;-70
2024/01/24 05:33:40;;;;;;;218.68;76.45;;;;;;;7.81;nan;99493.38;5061926;28;20048;-70
2024/01/24 05:36:11;;;;;;;209.23;73.53;;;;;;;7.87;nan;99498.88;5075978;28;20043;-70
2024/01/24 05:38:40;;;;;;;220.30;71.97;;;;;;;7.86;nan;99485.84;5085206;28;20050;-71
2024/01/24 05:41:09;;;;;;;214.15;74.10;;;;;;;7.98;nan;99485.41;5081612;28;20079;-70
2024/01/24 05:43:42;;;;;;;197.48;69.10;;;;;;;8.09;nan;99484.31;5067593;28;20060;-70
2024/01/24 05:46:12;;;;;;;193.40;70.45;;;;;;;8.25;nan;99483.56;5074066;28;20757;-71
2024/01/24 05:48:42;;;;;;;203.52;71.10;;;;;;;8.43;nan;99477.22;5078590;28;20056;-69
2024/01/24 05:51:12;;;;;;;216.10;75.82;;;;;;;8.37;nan;99480.50;5081963;28;20101;-69
2024/01/24 05:53:41;;;;;;;207.63;76.65;;;;;;;8.57;nan;99483.72;5078136;28;20048;-69
2024/01/24 05:56:11;;;;;;;220.20;81.03;;;;;;;8.63;nan;99480.41;5071004;28;20523;-69
2024/01/24 05:58:40;;;;;;;227.40;79.70;;;;;;;8.80;nan;99476.03;5082544;28;20387;-70
2024/01/24 06:01:10;;;;;;;217.63;79.28;;;;;;;8.80;nan;99482.13;5083277;28;20059;-69
2024/01/24 06:03:41;;;;;;;225.57;81.88;;;;;;;8.95;nan;99475.22;5077094;28;20052;-67
2024/01/24 06:06:11;;;;;;;243.40;82.60;;;;;;;8.80;nan;99479.50;5082073;28;20081;-71
2024/01/24 06:08:40;;;;;;;234.30;83.82;;;;;;;8.78;nan;99468.25;5079335;28;20052;-69
2024/01/24 06:11:09;;;;;;;231.57;84.03;;;;;;;8.81;nan;99467.09;5082285;28;20044;-69
2024/01/24 06:13:39;;;;;;;237.48;84.88;;;;;;;8.77;nan;99469.22;5078794;28;20402;-72
2024/01/24 06:16:08;;;;;;;225.68;85.80;;;;;;;9.24;nan;99469.47;5067504;28;20040;-69
2024/01/24 06:18:37;;;;;;;236.90;82.38;;;;;;;9.10;nan;99456.06;5086618;28;20433;-70
2024/01/24 06:21:09;;;;;;;221.88;81.95;;;;;;;9.39;nan;99457.22;5086456;28;20059;-69
2024/01/24 06:23:39;;;;;;;223.70;82.35;;;;;;;9.37;nan;99453.94;5085898;28;20055;-71
2024/01/24 06:26:08;;;;;;;213.93;79.28;;;;;;;9.30;nan;99457.38;5063711;28;20684;-70
2024/01/24 06:28:37;;;;;;;224.45;83.68;;;;;;;9.56;nan;99451.94;5081428;28;20063;-71
2024/01/24 06:31:07;;;;;;;234.57;88.65;;;;;;;9.70;nan;99451.22;5082774;28;20056;-70
2024/01/24 06:33:41;;;;;;;233.27;84.82;;;;;;;9.82;nan;99439.31;5043514;28;20089;-70
2024/01/24 06:36:10;;;;;;;233.90;87.38;;;;;;;10.07;nan;99434.75;5084057;28;20116;-70
2024/01/24 06:38:40;;;;;;;243.57;90.10;;;;;;;10.07;nan;99434.75;5084766;28;20040;-70
2024/01/24 06:41:13;;;;;;;250.50;95.53;;;;;;;10.18;nan;99437.88;5083523;28;20044;-69
2024/01/24 06:43:42;;;;;;;235.90;92.47;;;;;;;10.18;nan;99439.69;5084838;28;20687;-70
2024/01/24 06:46:12;;;;;;;236.10;91.55;;;;;;;10.11;nan;99430.78;5083984;28;20070;-69
2024/01/24 06:48:41;;;;;;;241.18;93.47;;;;;;;10.40;nan;99427.56;5086422;28;20036;-69
2024/01/24 06:51:12;;;;;;;257.13;97.30;;;;;;;10.35;nan;99417.47;5082612;28;20051;-69
2024/01/24 06:53:42;;;;;;;226.73;88.03;;;;;;;10.79;nan;99418.53;5085517;28;20048;-70
2024/01/24 06:56:11;;;;;;;264.63;100.18;;;;;;;10.73;nan;99407.81;5085350;28;20052;-70
2024/01/24 06:58:40;;;;;;;252.88;97.70;;;;;;;10.64;nan;99404.38;5086934;28;20139;-70
2024/01/24 07:01:09;;;;;;;242.75;98.35;;;;;;;10.65;nan;99402.56;5078246;28;20055;-70
2024/01/24 07:03:40;;;;;;;250.05;94.60;;;;;;;10.65;nan;99402.56;5068489;28;20040;-69
2024/01/24 07:06:10;;;;;;;245.70;95.22;;;;;;;10.82;nan;99393.50;5087907;28;20151;-70
2024/01/24 07:08:42;;;;;;;229.45;93.13;;;;;;;10.88;nan;99378.72;5088070;28;20044;-71
2024/01/24 07:11:11;;;;;;;242.07;99.93;;;;;;;11.03;nan;99369.81;5086061;28;20047;-71
2024/01/24 07:13:41;;;;;;;234.57;92.95;;;;;;;11.10;nan;99375.22;5086413;28;20572;-70
2024/01/24 07:16:10;;;;;;;224.73;93.20;;;;;;;11.17;nan;99366.38;5077636;28;20059;-71
2024/01/24 07:18:39;;;;;;;219.90;90.70;;;;;;;11.35;nan;99368.69;5086321;28;20047;-71
2024/01/24 07:21:10;;;;;;;230.73;96.90;;;;;;;11.62;nan;99361.94;5086013;28;20086;-71
2024/01/24 07:23:39;;;;;;;232.57;95.88;;;;;;;11.41;nan;99352.06;5085403;28;20093;-71
2024/01/24 07:26:09;;;;;;;238.63;97.55;;;;;;;11.45;nan;99352.50;5087532;28;20051;-70
2024/01/24 07:28:38;;;;;;;232.98;94.47;;;;;;;11.70;nan;99351.22;5083321;28;20044;-70
2024/01/24 07:31:07;;;;;;;213.50;90.90;;;;;;;11.78;nan;99348.50;5077791;28;20142;-70
2024/01/24 07:33:38;;;;;;;217.85;89.45;;;;;;;11.88;nan;99332.31;5079036;28;20044;-71
2024/01/24 07:36:07;;;;;;;207.98;90.72;;;;;;;11.97;nan;99337.31;5068263;28;20529;-70
2024/01/24 07:38:37;;;;;;;220.50;91.15;;;;;;;12.37;nan;99337.78;5063607;28;20054;-71
2024/01/24 07:41:10;;;;;;;225.55;91.35;;;;;;;12.31;nan;99318.09;5074041;28;20056;-71
2024/01/24 07:43:40;;;;;;;219.80;91.97;;;;;;;12.48;nan;99324.00;5070043;28;20051;-71
2024/01/24 07:46:11;;;;;;;200.77;89.35;;;;;;;12.32;nan;99319.75;5052931;28;20079;-71
2024/01/24 07:48:40;;;;;;;194.95;85.15;;;;;;;12.22;nan;99313.09;5059133;28;20044;-70
2024/01/24 07:51:09;;;;;;;218.65;92.70;;;;;;;12.41;nan;99308.00;5062208;28;20044;-70
2024/01/24 07:53:42;;;;;;;215.32;91.80;;;;;;;12.41;nan;99312.47;5069926;28;20044;-70
2024/01/24 07:56:11;;;;;;;206.13;87.10;;;;;;;12.59;nan;99305.72;5064921;28;20122;-70
2024/01/24 07:58:48;;;;;;;211.77;88.15;;;;;;;12.59;nan;99305.72;5066825;28;20049;-70
2024/01/24 08:01:17;;;;;;;214.68;94.82;;;;;;;12.59;nan;99302.22;5073334;28;20783;-68
2024/01/24 08:03:47;;;;;;;213.00;91.85;;;;;;;12.61;nan;99297.56;5076513;28;20071;-71
2024/01/24 08:06:18;;;;;;;210.43;92.93;;;;;;;12.64;nan;99288.38;5070095;28;20482;-70
2024/01/24 08:08:47;;;;;;;206.48;91.00;;;;;;;12.76;nan;99295.63;5071155;28;20064;-70
2024/01/24 08:11:17;;;;;;;209.93;92.15;;;;;;;12.46;nan;99292.31;5049452;28;20044;-70
2024/01/24 08:13:47;;;;;;;209.95;91.63;;;;;;;12.87;nan;99291.66;5066183;28;20429;-71
2024/01/24 08:16:18;;;;;;;209.45;92.40;;;;;;;12.30;nan;99295.22;5064750;28;20159;-70
2024/01/24 08:18:48;;;;;;;223.23;90.60;;;;;;;12.63;nan;99294.69;5051851;28;20563;-71
2024/01/24 08:21:17;;;;;;;209.07;94.18;;;;;;;12.80;nan;99290.75;5070182;28;20048;-71
2024/01/24 08:23:47;;;;;;;213.57;96.47;;;;;;;12.76;nan;99289.50;5069157;28;20048;-71
2024/01/24 08:26:18;;;;;;;222.80;95.65;;;;;;;12.54;nan;99278.06;5073734;28;20536;-70
2024/01/24 08:28:48;;;;;;;214.32;96.40;;;;;;;12.62;nan;99261.97;5075229;28;20051;-70
2024/01/24 08:31:17;;;;;;;226.95;97.78;;;;;;;12.60;nan;99264.84;5096039;28;20549;-71
2024/01/24 08:33:46;;;;;;;223.65;94.60;;;;;;;12.77;nan;99272.53;5083554;28;20051;-71
2024/01/24 08:36:20;;;;;;;213.43;95.55;;;;;;;12.64;nan;99269.78;5081263;28;20047;-70
2024/01/24 08:38:49;;;;;;;246.70;99.30;;;;;;;12.81;nan;99269.31;5083738;28;20150;-71
2024/01/24 08:41:18;;;;;;;231.23;98.75;;;;;;;12.66;nan;99267.75;5083799;28;20040;-71
2024/01/24 08:43:47;;;;;;;214.23;96.10;;;;;;;12.78;nan;99267.03;5079475;28;20405;-71
2024/01/24 08:46:17;;;;;;;224.90;99.75;;;;;;;12.73;nan;99268.63;5063414;28;20051;-71
2024/01/24 08:48:47;;;;;;;233.93;98.60;;;;;;;12.85;nan;99256.44;5079809;28;20040;-71
2024/01/24 08:51:16;;;;;;;209.73;96.72;;;;;;;12.93;nan;99266.94;5080997;28;20562;-71
2024/01/24 08:53:46;;;;;;;224.82;100.10;;;;;;;12.75;nan;99262.09;5084487;28;20048;-71
2024/01/24 08:56:15;;;;;;;223.90;97.47;;;;;;;12.79;nan;99276.63;5088695;28;20385;-70
2024/01/24 08:58:44;;;;;;;212.15;97.05;;;;;;;12.77;nan;99270.72;5081012;28;20044;-71
2024/01/24 09:01:14;;;;;;;216.77;95.95;;;;;;;12.85;nan;99267.06;5095396;28;20375;-71
2024/01/24 09:03:44;;;;;;;213.65;95.40;;;;;;;12.63;nan;99263.63;5085335;28;20765;-71
2024/01/24 09:06:13;;;;;;;212.02;96.55;;;;;;;12.63;nan;99265.47;5086196;28;20051;-70
2024/01/24 09:08:45;;;;;;;205.52;93.63;;;;;;;12.54;nan;99275.41;5083553;28;20143;-71
2024/01/24 09:11:15;;;;;;;192.13;88.32;;;;;;;12.37;nan;99272.19;5082853;28;20040;-71
2024/01/24 09:13:45;;;;;;;203.40;87.68;;;;;;;12.18;nan;99282.59;5082595;28;20067;-70
2024/01/24 09:16:17;;;;;;;187.68;82.00;;;;;;;12.14;nan;99279.50;5083392;28;20048;-70
2024/01/24 09:18:47;;;;;;;187.13;83.40;;;;;;;12.12;nan;99281.53;5083476;28;20148;-70
2024/01/24 09:21:16;;;;;;;193.63;82.20;;;;;;;11.97;nan;99280.75;5083456;28;20056;-70
2024/01/24 09:23:49;;;;;;;181.02;76.18;;;;;;;11.87;nan;99283.69;5082645;28;20047;-70
2024/01/24 09:26:19;;;;;;;184.98;77.78;;;;;;;11.77;nan;99277.88;5080246;28;20044;-71
2024/01/24 09:28:48;;;;;;;169.52;73.47;;;;;;;11.83;nan;99277.13;5083121;28;20067;-70
2024/01/24 09:31:17;;;;;;;178.27;75.95;;;;;;;11.81;nan;99284.47;5083289;28;20042;-70
2024/01/24 09:33:47;;;;;;;164.88;72.05;;;;;;;11.68;nan;99285.06;5078396;28;20054;-70
2024/01/24 09:36:17;;;;;;;147.02;67.35;;;;;;;11.43;nan;99286.38;5083933;28;20345;-70
2024/01/24 09:38:46;;;;;;;164.57;65.68;;;;;;;11.32;nan;99278.91;5086618;28;20527;-70
2024/01/24 09:41:21;;;;;;;152.23;67.20;;;;;;;11.21;nan;99274.84;5087553;28;20754;-70
2024/01/24 09:43:58;;;;;;;152.13;65.15;;;;;;;11.26;nan;99259.22;5084292;28;20075;-70
2024/01/24 09:46:28;;;;;;;144.68;63.00;;;;;;;11.17;nan;99259.50;5078097;28;20043;-70
2024/01/24 09:48:58;;;;;;;138.50;61.85;;;;;;;10.93;nan;99257.91;5071421;28;20044;-70
2024/01/24 09:51:31;;;;;;;135.15;62.38;;;;;;;10.89;nan;99248.69;5071126;28;20048;-70
2024/01/24 09:54:07;;;;;;;153.30;68.43;;;;;;;10.84;nan;99263.50;5072155;28;20048;-71
2024/01/24 09:56:38;;;;;;;161.52;67.55;;;;;;;10.94;nan;99251.63;5066960;28;20049;-70
2024/01/24 09:59:09;;;;;;;159.13;67.88;;;;;;;10.70;nan;99246.56;5067391;28;20054;-70
2024/01/24 10:01:39;;;;;;;159.35;68.38;;;;;;;10.74;nan;99245.22;5074853;28;20112;-70
2024/01/24 10:04:14;;;;;;;149.43;64.75;;;;;;;10.89;nan;99246.03;5077332;28;20054;-70
2024/01/24 10:06:46;;;;;;;150.93;64.22;;;;;;;10.74;nan;99245.22;5066231;28;20105;-70
2024/01/24 10:09:16;;;;;;;138.50;62.55;;;;;;;10.68;nan;99249.38;5066856;28;20664;-70
2024/01/24 10:11:45;;;;;;;133.52;61.17;;;;;;;10.71;nan;99242.94;5067639;28;20045;-70
2024/01/24 10:14:14;;;;;;;138.00;61.63;;;;;;;10.73;nan;99246.19;5063655;28;20523;-70
2024/01/24 10:16:43;;;;;;;135.95;61.92;;;;;;;10.87;nan;99236.63;5075600;28;20137;-70
2024/01/24 10:19:13;;;;;;;140.35;60.17;;;;;;;10.66;nan;99237.34;5083982;28;20139;-71
2024/01/24 10:21:42;;;;;;;133.85;65.18;;;;;;;10.93;nan;99239.38;5079247;28;20040;-70
2024/01/24 10:24:11;;;;;;;129.02;61.38;;;;;;;10.89;nan;99237.28;5068319;28;20052;-70
2024/01/24 10:26:41;;;;;;;142.85;63.42;;;;;;;10.93;nan;99233.28;5066818;28;20049;-70
2024/01/24 10:29:11;;;;;;;139.52;65.82;;;;;;;10.90;nan;99233.59;5066400;28;20754;-70
2024/01/24 10:31:42;;;;;;;136.35;64.30;;;;;;;10.65;nan;99225.91;5067234;28;20040;-71
2024/01/24 10:34:11;;;;;;;142.95;64.05;;;;;;;10.42;nan;99233.06;5065810;28;20139;-70
2024/01/24 10:36:44;;;;;;;144.27;60.67;;;;;;;10.44;nan;99224.97;5066473;28;20145;-70
2024/01/24 10:39:16;;;;;;;132.40;60.30;;;;;;;10.39;nan;99229.97;5065863;28;20151;-70
2024/01/24 10:41:53;;;;;;;140.02;63.38;;;;;;;10.55;nan;99233.28;5066985;28;20054;-70
2024/01/24 10:44:30;;;;;;;141.73;63.40;;;;;;;10.42;nan;99232.25;5063657;28;20048;-71
2024/01/24 10:47:00;;;;;;;135.80;61.42;;;;;;;10.29;nan;99233.66;5069409;28;20052;-71
2024/01/24 10:49:31;;;;;;;135.70;63.22;;;;;;;10.25;nan;99235.03;5073119;28;20051;-71
2024/01/24 10:52:00;;;;;;;141.77;62.40;;;;;;;10.31;nan;99236.16;5096783;28;20063;-71
2024/01/24 10:54:34;;;;;;;145.90;64.32;;;;;;;10.21;nan;99241.69;5070668;28;20548;-71
2024/01/24 10:57:06;;;;;;;139.27;63.13;;;;;;;10.20;nan;99241.84;5079513;28;20048;-70
2024/01/24 10:59:38;;;;;;;144.25;62.33;;;;;;;10.33;nan;99232.31;5065516;28;20052;-70
2024/01/24 11:02:09;;;;;;;138.65;62.10;;;;;;;10.18;nan;99230.59;5086916;28;20058;-71
2024/01/24 11:04:39;;;;;;;144.05;63.35;;;;;;;10.27;nan;99229.53;5074804;28;20048;-72
2024/01/24 11:07:16;;;;;;;144.20;62.95;;;;;;;10.25;nan;99236.84;5061949;28;20052;-70
2024/01/24 11:10:05;;;;;;;147.15;63.72;;;;;;;10.29;nan;99231.03;5087395;28;20379;-70
2024/01/24 11:12:37;;;;;;;150.57;67.32;;;;;;;10.19;nan;99230.44;5086106;28;20040;-71
2024/01/24 11:15:08;;;;;;;154.10;68.68;;;;;;;10.18;nan;99233.25;5085765;28;20512;-70
2024/01/24 11:17:39;;;;;;;140.70;65.13;;;;;;;10.01;nan;99237.81;5069293;28;20044;-70
2024/01/24 11:20:10;;;;;;;149.85;67.40;;;;;;;10.06;nan;99229.34;5083231;28;20072;-70
2024/01/24 11:22:41;;;;;;;155.68;65.32;;;;;;;10.01;nan;99239.63;5081145;28;20048;-70
2024/01/24 11:25:12;;;;;;;132.57;61.90;;;;;;;10.10;nan;99231.47;5085155;28;20142;-70
2024/01/24 11:27:44;;;;;;;147.80;64.78;;;;;;;10.03;nan;99240.28;5087054;28;20055;-71
2024/01/24 11:30:29;;;;;;;153.77;65.68;;;;;;;9.92;nan;99239.69;5062109;28;20094;-71
2024/01/24 11:32:59;;;;;;;151.65;64.95;;;;;;;9.96;nan;99247.28;5065172;28;20048;-70
2024/01/24 11:35:42;;;;;;;158.57;66.20;;;;;;;10.04;nan;99253.34;5047286;28;20048;-69
2024/01/24 11:38:11;;;;;;;;;;;;;;;9.93;nan;99261.69;5047264;28;20049;-69
2024/01/24 11:40:51;;;;;;;151.93;64.28;;;;;;;10.09;nan;99271.34;5046874;28;19939;-69
2024/01/24 11:43:28;;;;;;;157.35;64.75;;;;;;;10.25;nan;99269.44;5052901;28;20445;-69
2024/01/24 11:46:03;;;;;;;147.93;65.78;;;;;;;9.97;nan;99273.56;5057004;28;20044;-70
2024/01/24 11:48:36;;;;;;;147.82;65.88;;;;;;;9.82;nan;99272.66;5058194;28;20041;-69
2024/01/24 11:51:11;;;;;;;149.05;63.83;;;;;;;9.74;nan;99256.81;5042859;28;20188;-69
2024/01/24 11:53:41;;;;;;;149.65;63.38;;;;;;;9.61;nan;99262.66;5045769;28;20384;-69
2024/01/24 11:56:17;;;;;;;150.18;64.30;;;;;;;9.84;nan;99258.25;5051959;28;20086;-70
2024/01/24 11:58:48;;;;;;;141.68;64.18;;;;;;;9.80;nan;99267.53;5044576;28;20045;-70
2024/01/24 12:01:17;;;;;;;156.10;66.75;;;;;;;9.83;nan;99267.19;5057965;28;20144;-69
2024/01/24 12:03:47;;;;;;;149.35;69.07;;;;;;;9.75;nan;99266.41;5043989;28;20055;-70
2024/01/24 12:06:19;;;;;;;149.32;68.20;;;;;;;9.76;nan;99271.53;5036404;28;20083;-69
2024/01/24 12:08:48;;;;;;;156.65;71.07;;;;;;;9.57;nan;99264.00;5032146;28;20156;-70
2024/01/24 12:11:19;;;;;;;162.63;69.03;;;;;;;9.66;nan;99276.19;5040879;28;20469;-70
2024/01/24 12:13:49;;;;;;;161.65;67.72;;;;;;;9.61;nan;99264.47;5049479;28;20086;-70
2024/01/24 12:16:22;;;;;;;161.70;67.13;;;;;;;9.50;nan;99275.44;5040310;28;20163;-70